Katowice International Airport

EPKT · Silesia, Poland

METAR history EPKT · Katowice International Airport

Below you see METARs of the last few days. Select a year to browse through older METARs, from the year 2007 onwards.

December 4, 2022

Time Code Weather Temp. Visibility Ceiling Wind METAR/SPECI
02:30
V
2 °C 10 km+ - 100° 100° 5 kt METAR EPKT 040130Z 10005KT CAVOK 02/00 Q1022
02:00
V
2 °C 9 km - 100° 100° 7 kt METAR EPKT 040100Z 10007KT 9000 NSC 02/00 Q1022
01:30
V
2 °C 8 km - 100° 100° 6 kt METAR EPKT 040030Z 10006KT 8000 NSC 02/01 Q1022
01:00
M
2 °C 7 km - 090° 090° 7 kt METAR EPKT 040000Z 09007KT 7000 NSC 02/01 Q1022
00:30
M
2 °C 7 km - 100° 100° 7 kt METAR EPKT 032330Z 10007KT 7000 NSC 02/01 Q1022
00:00
M
1 °C 6 km - 080° 080° 6 kt METAR EPKT 032300Z 08006KT 6000 NSC 01/01 Q1022

December 3, 2022

Time Code Weather Temp. Visibility Ceiling Wind METAR/SPECI
23:30
M
1 °C 6 km - 080° 080° 5 kt METAR EPKT 032230Z 08005KT 6000 NSC 01/01 Q1022
23:00
M
1 °C 5 km - 090° 090° 4 kt METAR EPKT 032200Z 09004KT 5000 BR NSC 01/01 Q1022
22:30
M
1 °C 5 km - 090° 090° 6 kt METAR EPKT 032130Z 09006KT 5000 BR NSC 01/00 Q1022
22:00
M
1 °C 5 km - 090° 090° 5 kt METAR EPKT 032100Z 09005KT 5000 BR NSC 01/00 Q1022
21:30
M
1 °C 5 km - 100° 100° 6 kt METAR EPKT 032030Z 10006KT 5000 BR FEW044 01/00 Q1022
21:00
M
1 °C 5 km - 100° 100° 7 kt METAR EPKT 032000Z 10007KT 5000 BR NSC 01/00 Q1022
20:30
M
0 °C 5 km - 100° 100° 7 kt METAR EPKT 031930Z 10007KT 5000 BR FEW044 00/M00 Q1022
20:00
M
0 °C 5 km - 090° 090° 6 kt METAR EPKT 031900Z 09006KT 5000 BR SCT049 M00/M01 Q1022
19:30
M
0 °C 5 km 4,700 ft 080° 080° 6 kt METAR EPKT 031830Z 08006KT 5000 BR FEW004 BKN047 M00/M01 Q1023
19:00
I
-1 °C 4.9 km 4,800 ft 080° 080° 7 kt METAR EPKT 031800Z 08007KT 4900 BR FEW005 BKN048 M01/M01 Q1023
18:30
I
-1 °C 4 km - 090° 090° 8 kt METAR EPKT 031730Z 09008KT 4000 BR SCT004 SCT045 M01/M01 Q1023
18:00
L
-1 °C 3 km 300 ft 090° 090° 8 kt METAR EPKT 031700Z 09008KT 3000 BR BKN003 OVC047 M01/M01 Q1023
17:30
L
-1 °C 1.9 km 200 ft 090° 090° 8 kt METAR EPKT 031630Z 09008KT 1900 BR OVC002 M01/M01 Q1023
17:00
L
-1 °C 500 m 100 ft 100° 100° 8 kt METAR EPKT 031600Z 10008KT 0500 R26/1400N FZFG VV001 M01/M01 Q1023
16:30
L
-1 °C 400 m 100 ft 100° 100° 6 kt METAR EPKT 031530Z 10006KT 0400 R26/1300U FZFG VV001 M01/M01 Q1023
16:00
L
-1 °C 400 m 100 ft 100° 100° 8 kt METAR EPKT 031500Z 10008KT 0400 R26/1000N FZFG VV001 M01/M01 Q1023
15:30
L
-1 °C 750 m 100 ft 090° 090° 10 kt METAR EPKT 031430Z 09010KT 0750 R26/1500D FZFG VV001 M01/M01 Q1023
15:00
L
-1 °C 2 km 200 ft 100° 100° 7 kt METAR EPKT 031400Z 10007KT 2000 BR OVC002 M01/M01 Q1023
14:30
L
-1 °C 1.3 km 200 ft 110° 110° 7 kt METAR EPKT 031330Z 11007KT 1300 R26/1600U BR OVC002 M01/M01 Q1023
14:00
L
-1 °C 1.6 km 200 ft 090° 090° 7 kt METAR EPKT 031300Z 09007KT 1600 BR OVC002 M01/M01 Q1023
13:30
L
-1 °C 1.2 km 200 ft 080° 080° 8 kt METAR EPKT 031230Z 08008KT 1200 0800N R26/1200U BCFG BR OVC002 M01/M01 Q1023
13:00
L
-1 °C 1.2 km 200 ft 080° 080° 6 kt METAR EPKT 031200Z 08006KT 1200 R26/1100N BR OVC002 M01/M01 Q1023
12:30
L
-1 °C 1.1 km 100 ft 120° 120° 5 kt METAR EPKT 031130Z 12005KT 070V150 1100 0800E R26/1200D BCFG BR OVC001 M01/M02 Q1024
12:00
L
-1 °C 2.1 km 200 ft 140° 140° 6 kt METAR EPKT 031100Z 14006KT 2100 BR OVC002 M01/M01 Q1024
11:30
L
-1 °C 1.2 km 200 ft 150° 150° 6 kt METAR EPKT 031030Z 15006KT 1200 R26/1800N BR OVC002 M01/M02 Q1024
11:00
L
-1 °C 1.3 km 200 ft 130° 130° 6 kt METAR EPKT 031000Z 13006KT 100V160 1300 0800NW R26/1900U BCFG BR OVC002 M01/M01 Q1024
10:30
L
-2 °C 1.2 km 200 ft 080° 080° 6 kt METAR EPKT 030930Z 08006KT 1200 R26/1200D BR OVC002 M02/M02 Q1024
10:00
L
-2 °C 1.6 km 200 ft 090° 090° 7 kt METAR EPKT 030900Z 09007KT 1600 BR OVC002 M02/M02 Q1024
09:30
L
-1 °C 1.6 km 200 ft 110° 110° 6 kt METAR EPKT 030830Z 11006KT 1600 BR OVC002 M01/M02 Q1024
09:00
L
-1 °C 2.3 km 200 ft 110° 110° 5 kt METAR EPKT 030800Z 11005KT 2300 BR OVC002 M01/M02 Q1024
08:30
L
-1 °C 3 km 300 ft 110° 110° 6 kt METAR EPKT 030730Z 11006KT 3000 BR OVC003 M01/M02 Q1024
08:00
L
-1 °C 4.4 km 300 ft 110° 110° 6 kt METAR EPKT 030700Z 11006KT 4400 BR OVC003 M01/M02 Q1024
07:30
L
-1 °C 5 km 400 ft 110° 110° 6 kt METAR EPKT 030630Z 11006KT 5000 BR OVC004 M01/M02 Q1023
07:00
L
-1 °C 5 km 400 ft 080° 080° 6 kt METAR EPKT 030600Z 08006KT 5000 BR OVC004 M01/M02 Q1023
06:30
I
-1 °C 6 km 500 ft 070° 070° 5 kt METAR EPKT 030530Z 07005KT 6000 OVC005 M01/M02 Q1023
06:00
I
-1 °C 6 km 600 ft 080° 080° 3 kt METAR EPKT 030500Z 08003KT 060V120 6000 BKN006 OVC029 M01/M02 Q1024
05:30
I
-1 °C 6 km 700 ft 060° 060° 4 kt METAR EPKT 030430Z 06004KT 6000 BKN007 OVC032 M01/M02 Q1024
05:00
M
-1 °C 6 km 3,400 ft 070° 070° 3 kt METAR EPKT 030400Z 07003KT 6000 FEW007 OVC034 M01/M02 Q1024
04:30
M
-2 °C 6 km 3,500 ft 070° 070° 3 kt METAR EPKT 030330Z 07003KT 6000 -SN OVC035 M02/M02 Q1024
04:00
M
-2 °C 7 km 3,500 ft 070° 070° 3 kt METAR EPKT 030300Z 07003KT 7000 FEW008 BKN035 OVC039 M02/M02 Q1024
03:30
M
-2 °C 6 km 3,800 ft 070° 070° 3 kt METAR EPKT 030230Z 07003KT 6000 -SN OVC038 M02/M02 Q1024
03:00
M
-2 °C 5 km 3,900 ft 060° 060° 4 kt METAR EPKT 030200Z 06004KT 5000 -SN BR FEW005 BKN039 BKN044 M02/M02 Q1024
02:30
M
-2 °C 5 km 4,200 ft 050° 050° 4 kt METAR EPKT 030130Z 05004KT 5000 -SN BR BKN042 OVC047 M02/M02 Q1024
02:00
M
-2 °C 5 km 4,300 ft Var Var 2 kt METAR EPKT 030100Z VRB02KT 5000 BR FEW006 BKN043 M02/M03 Q1024
01:30
M
-2 °C 5 km 1,500 ft Var Var 2 kt METAR EPKT 030030Z VRB02KT 5000 BR FEW005 BKN015 M02/M03 Q1024
01:00
I
-2 °C 5 km 700 ft 050° 050° 3 kt METAR EPKT 030000Z 05003KT 5000 -SN BR BKN007 M02/M03 Q1024
00:30
I
-2 °C 3 km 900 ft 050° 050° 3 kt METAR EPKT 022330Z 05003KT 3000 -SN BR FEW006 BKN009 M02/M03 Q1024
00:00
I
-2 °C 3 km 800 ft 060° 060° 3 kt METAR EPKT 022300Z 06003KT 3000 -SN BR BKN008 M02/M03 Q1024

December 2, 2022

Time Code Weather Temp. Visibility Ceiling Wind METAR/SPECI
23:30
I
-2 °C 5 km 800 ft 060° 060° 4 kt METAR EPKT 022230Z 06004KT 5000 -SN BR OVC008 M02/M03 Q1024
23:00
M
-2 °C 6 km 1,000 ft 080° 080° 4 kt METAR EPKT 022200Z 08004KT 6000 -SN FEW007 BKN010 M02/M03 Q1024
22:30
I
-2 °C 6 km 700 ft 060° 060° 4 kt METAR EPKT 022130Z 06004KT 6000 -SN SCT004 BKN007 M02/M03 Q1024
22:00
I
-2 °C 7 km 600 ft 060° 060° 3 kt METAR EPKT 022100Z 06003KT 7000 -SN FEW004 OVC006 M02/M03 Q1024
21:30
I
-2 °C 8 km 600 ft 080° 080° 4 kt METAR EPKT 022030Z 08004KT 8000 -SN OVC006 M02/M03 Q1024 REFZRA
21:00
I
-2 °C 8 km 600 ft 080° 080° 5 kt METAR EPKT 022000Z 08005KT 8000 -FZRA OVC006 M02/M04 Q1024
20:30
I
-2 °C 10 km+ 700 ft 070° 070° 6 kt METAR EPKT 021930Z 07006KT 040V100 9999 -SN OVC007 M02/M04 Q1024
20:00
I
-2 °C 10 km+ 700 ft 080° 080° 7 kt METAR EPKT 021900Z 08007KT 9999 OVC007 M02/M04 Q1024
19:30
I
-3 °C 10 km+ 800 ft 080° 080° 7 kt METAR EPKT 021830Z 08007KT 9999 OVC008 M03/M04 Q1024
19:00
I
-3 °C 10 km+ 800 ft 080° 080° 7 kt METAR EPKT 021800Z 08007KT 9999 OVC008 M03/M04 Q1025
18:30
I
-3 °C 10 km+ 800 ft 080° 080° 8 kt METAR EPKT 021730Z 08008KT 9999 OVC008 M03/M04 Q1024
18:00
I
-3 °C 10 km+ 800 ft 080° 080° 9 kt METAR EPKT 021700Z 08009KT 9999 OVC008 M03/M04 Q1024
17:30
I
-3 °C 10 km+ 800 ft 070° 070° 9 kt METAR EPKT 021630Z 07009KT 9999 OVC008 M03/M04 Q1024
17:00
I
-2 °C 8 km 700 ft 070° 070° 7 kt METAR EPKT 021600Z 07007KT 8000 -SN FEW002 SCT005 BKN007 M02/M04 Q1024 RESN
16:30
I
-2 °C 10 km+ 800 ft 090° 090° 8 kt METAR EPKT 021530Z 09008KT 9999 OVC008 M02/M04 Q1024
16:00
I
-2 °C 10 km+ 800 ft 080° 080° 9 kt METAR EPKT 021500Z 08009KT 9999 FEW006 OVC008 M02/M04 Q1024
15:30
I
-2 °C 10 km+ 800 ft 060° 060° 8 kt METAR EPKT 021430Z 06008KT 9999 OVC008 M02/M04 Q1024
15:00
I
-2 °C 10 km+ 800 ft 070° 070° 7 kt METAR EPKT 021400Z 07007KT 9999 OVC008 M02/M04 Q1024
14:30
I
-2 °C 10 km+ 900 ft 100° 100° 9 kt METAR EPKT 021330Z 10009KT 9999 OVC009 M02/M04 Q1024
14:00
I
-2 °C 10 km+ 800 ft 090° 090° 8 kt METAR EPKT 021300Z 09008KT 050V120 9999 OVC008 M02/M04 Q1024
13:30
I
-2 °C 10 km+ 800 ft 070° 070° 7 kt METAR EPKT 021230Z 07007KT 9999 OVC008 M02/M04 Q1024
13:00
I
-2 °C 10 km+ 600 ft 080° 080° 8 kt METAR EPKT 021200Z 08008KT 9999 SCT005 OVC006 M02/M04 Q1024
12:30
I
-2 °C 10 km+ 500 ft 080° 080° 8 kt METAR EPKT 021130Z 08008KT 9999 BKN005 OVC007 M02/M03 Q1024
12:00
I
-2 °C 10 km+ 600 ft 110° 110° 9 kt METAR EPKT 021100Z 11009KT 9999 OVC006 M02/M04 Q1024 REFZDZ
11:30
L
-2 °C 9 km 400 ft 080° 080° 9 kt METAR EPKT 021030Z 08009KT 9000 -FZDZ OVC004 M02/M03 Q1024
11:00
L
-2 °C 9 km 400 ft 080° 080° 8 kt METAR EPKT 021000Z 08008KT 9000 -FZDZ OVC004 M02/M03 Q1025
10:30
I
-2 °C 10 km+ 500 ft 060° 060° 7 kt METAR EPKT 020930Z 06007KT 9999 OVC005 M02/M03 Q1025
10:00
I
-2 °C 10 km+ 500 ft 080° 080° 8 kt METAR EPKT 020900Z 08008KT 9999 -SN OVC005 M02/M03 Q1025
09:30
I
-2 °C 10 km+ 500 ft 070° 070° 7 kt METAR EPKT 020830Z 07007KT 9999 -SN OVC005 M02/M03 Q1024
09:00
I
-2 °C 10 km+ 600 ft 060° 060° 9 kt METAR EPKT 020800Z 06009KT 9999 -SN OVC006 M02/M04 Q1025
08:30
I
-2 °C 10 km+ 500 ft 070° 070° 7 kt METAR EPKT 020730Z 07007KT 9999 -SN OVC005 M02/M03 Q1024
08:00
I
-2 °C 10 km+ 600 ft 070° 070° 5 kt METAR EPKT 020700Z 07005KT 9999 OVC006 M02/M03 Q1024
07:30
I
-2 °C 10 km+ 500 ft 070° 070° 9 kt METAR EPKT 020630Z 07009KT 9999 -SN FEW003 OVC005 M02/M03 Q1024 RESN
07:00
I
-2 °C 10 km+ 500 ft 070° 070° 9 kt METAR EPKT 020600Z 07009KT 9999 -SN OVC005 M02/M03 Q1024
06:30
I
-2 °C 10 km+ 600 ft 060° 060° 8 kt METAR EPKT 020530Z 06008KT 9999 -SN OVC006 M02/M03 Q1024
06:00
I
-2 °C 10 km+ 600 ft 060° 060° 7 kt METAR EPKT 020500Z 06007KT 9999 -SN OVC006 M02/M03 Q1024
05:30
I
-2 °C 10 km+ 700 ft 060° 060° 8 kt METAR EPKT 020430Z 06008KT 9999 -SN OVC007 M02/M03 Q1024
05:00
I
-2 °C 10 km+ 700 ft 060° 060° 8 kt METAR EPKT 020400Z 06008KT 9999 -SN OVC007 M02/M03 Q1024
04:30
I
-2 °C 10 km+ 700 ft 070° 070° 7 kt METAR EPKT 020330Z 07007KT 9999 -SN OVC007 M02/M03 Q1024
04:00
I
-1 °C 10 km+ 800 ft 060° 060° 7 kt METAR EPKT 020300Z 06007KT 9999 -SN OVC008 M01/M03 Q1024
03:30
I
-1 °C 10 km+ 900 ft 070° 070° 7 kt METAR EPKT 020230Z 07007KT 9999 OVC009 M01/M03 Q1024
03:00
I
-1 °C 10 km+ 900 ft 060° 060° 6 kt METAR EPKT 020200Z 06006KT 030V090 9999 OVC009 M01/M03 Q1025
02:30
I
-1 °C 10 km+ 800 ft 070° 070° 8 kt METAR EPKT 020130Z 07008KT 9999 OVC008 M01/M03 Q1025
02:00
I
-1 °C 10 km+ 800 ft 070° 070° 8 kt METAR EPKT 020100Z 07008KT 9999 OVC008 M01/M03 Q1025
01:30
I
-1 °C 10 km+ 900 ft 070° 070° 9 kt METAR EPKT 020030Z 07009KT 050V110 9999 OVC009 M01/M03 Q1025
01:00
I
-1 °C 10 km+ 900 ft 070° 070° 7 kt METAR EPKT 020000Z 07007KT 9999 OVC009 M01/M03 Q1025
00:30
M
-1 °C 10 km+ 1,000 ft 080° 080° 7 kt METAR EPKT 012330Z 08007KT 9999 SCT009 OVC010 M01/M03 Q1025
00:00
I
-1 °C 10 km+ 900 ft 110° 110° 7 kt METAR EPKT 012300Z 11007KT 9999 OVC009 M01/M03 Q1025

December 1, 2022

Time Code Weather Temp. Visibility Ceiling Wind METAR/SPECI
23:30
M
-1 °C 10 km+ 1,000 ft 070° 070° 8 kt METAR EPKT 012230Z 07008KT 9999 OVC010 M01/M03 Q1025
23:00
M
-1 °C 10 km+ 1,100 ft 070° 070° 5 kt METAR EPKT 012200Z 07005KT 9999 OVC011 M01/M03 Q1025
22:30
M
0 °C 10 km+ 1,000 ft 070° 070° 8 kt METAR EPKT 012130Z 07008KT 9999 OVC010 M00/M03 Q1025
22:00
M
0 °C 10 km+ 1,000 ft 070° 070° 6 kt METAR EPKT 012100Z 07006KT 9999 OVC010 M00/M03 Q1025
21:30
M
0 °C 10 km+ 1,000 ft 060° 060° 9 kt METAR EPKT 012030Z 06009KT 9999 OVC010 M00/M03 Q1025
21:00
M
0 °C 10 km+ 1,000 ft 090° 090° 10 kt METAR EPKT 012000Z 09010KT 9999 OVC010 M00/M03 Q1026
20:30
M
0 °C 10 km+ 1,000 ft 060° 060° 8 kt METAR EPKT 011930Z 06008KT 9999 OVC010 M00/M02 Q1026
20:00
M
0 °C 10 km+ 1,000 ft 090° 090° 10 kt METAR EPKT 011900Z 09010KT 050V110 9999 OVC010 M00/M02 Q1026
19:30
M
0 °C 10 km+ 1,000 ft 070° 070° 8 kt METAR EPKT 011830Z 07008KT 9999 OVC010 00/M02 Q1026
19:00
M
0 °C 10 km+ 1,100 ft 070° 070° 9 kt METAR EPKT 011800Z 07009KT 9999 OVC011 00/M02 Q1026
18:30
M
0 °C 10 km+ 1,100 ft 060° 060° 9 kt METAR EPKT 011730Z 06009KT 9999 OVC011 00/M02 Q1026
18:00
M
0 °C 10 km+ 1,100 ft 070° 070° 6 kt METAR EPKT 011700Z 07006KT 9999 OVC011 00/M02 Q1026
17:30
M
0 °C 10 km+ 1,200 ft 090° 090° 8 kt METAR EPKT 011630Z 09008KT 9999 OVC012 00/M02 Q1026
17:00
M
0 °C 10 km+ 1,200 ft 090° 090° 7 kt METAR EPKT 011600Z 09007KT 9999 OVC012 00/M02 Q1026
16:30
M
0 °C 10 km+ 1,200 ft 080° 080° 6 kt METAR EPKT 011530Z 08006KT 9999 OVC012 00/M02 Q1026
16:00
M
0 °C 10 km+ 1,200 ft 070° 070° 6 kt METAR EPKT 011500Z 07006KT 9999 OVC012 00/M02 Q1026
15:30
M
1 °C 10 km+ 1,000 ft 070° 070° 8 kt METAR EPKT 011430Z 07008KT 9999 BKN010 01/M02 Q1026
15:00
M
1 °C 10 km+ 1,000 ft 070° 070° 6 kt METAR EPKT 011400Z 07006KT 9999 OVC010 01/M02 Q1026
14:30
M
1 °C 10 km+ 1,100 ft 090° 090° 10 kt METAR EPKT 011330Z 09010KT 9999 OVC011 01/M02 Q1026
14:00
M
1 °C 10 km+ 1,000 ft 100° 100° 9 kt METAR EPKT 011300Z 10009KT 9999 OVC010 01/M02 Q1026
13:30
M
1 °C 10 km+ 1,100 ft 080° 080° 9 kt METAR EPKT 011230Z 08009KT 9999 OVC011 01/M02 Q1026
13:00
M
1 °C 10 km+ 1,200 ft 080° 080° 7 kt METAR EPKT 011200Z 08007KT 050V110 9999 OVC012 01/M02 Q1026
12:30
M
1 °C 10 km+ 1,100 ft 090° 090° 9 kt METAR EPKT 011130Z 09009KT 9999 OVC011 01/M02 Q1026
12:00
M
1 °C 10 km+ 1,100 ft 080° 080° 11 kt METAR EPKT 011100Z 08011KT 9999 OVC011 01/M02 Q1026
11:30
M
1 °C 10 km+ 1,100 ft 080° 080° 8 kt METAR EPKT 011030Z 08008KT 9999 OVC011 01/M01 Q1026
11:00
M
1 °C 10 km+ 1,100 ft 080° 080° 9 kt METAR EPKT 011000Z 08009KT 060V120 9999 OVC011 01/M02 Q1026

We and third parties follow your internet behavior on our website with cookies. If you continue, we assume you agree with our cookie policy.